Time;durP1;ratioP1;P1;durP2;ratioP2;P2;SDS_P1;SDS_P2;PMS_P1;PMS_P2;Temp;Humidity;BMP_temperature;BMP_pressure;BME280_temperature;BME280_humidity;BME280_pressure;Samples;Min_cycle;Max_cycle;Signal;HPM_P1;HPM_P2
2022/09/04 04:04:18;;;;;;;1.02;0.20;;;14.90;99.90;;;;;;5007650;23;88418;-72
2022/09/04 04:07:19;;;;;;;2.92;0.20;;;15.00;99.90;;;;;;4869943;28;86726;-71
2022/09/04 04:10:32;;;;;;;1.95;0.30;;;15.10;99.90;;;;;;4892801;28;88643;-73
2022/09/04 04:13:33;;;;;;;1.67;0.60;;;15.10;99.90;;;;;;4934010;28;87291;-71
2022/09/04 04:16:33;;;;;;;1.35;0.20;;;15.20;99.90;;;;;;4911814;28;86992;-69
2022/09/04 04:19:22;;;;;;;3.67;0.20;;;15.20;99.90;;;;;;4931603;28;87543;-71
2022/09/04 04:22:24;;;;;;;1.20;0.30;;;15.30;99.90;;;;;;4898779;28;86734;-71
2022/09/04 04:25:13;;;;;;;1.20;0.25;;;15.40;99.90;;;;;;4938120;28;87483;-72
2022/09/04 04:27:57;;;;;;;1.42;0.22;;;15.40;99.90;;;;;;4940824;28;88354;-72
2022/09/04 04:30:23;;;;;;;1.17;0.25;;;15.40;99.90;;;;;;4938191;28;86258;-72
2022/09/04 04:33:18;;;;;;;1.08;0.30;;;15.40;99.90;;;;;;4940164;28;86605;-73
2022/09/04 04:36:16;;;;;;;1.15;0.20;;;15.40;99.90;;;;;;4944332;28;86751;-74
2022/09/04 04:39:20;;;;;;;1.02;0.20;;;15.40;99.90;;;;;;4942714;28;87921;-71
2022/09/04 04:42:05;;;;;;;0.82;0.15;;;15.40;99.90;;;;;;4899253;28;86987;-70
2022/09/04 04:47:36;;;;;;;3.38;0.20;;;15.40;99.90;;;;;;4938102;28;86749;-71
2022/09/04 04:50:26;;;;;;;2.00;0.20;;;15.30;99.90;;;;;;4945001;28;86895;-71
2022/09/04 04:52:57;;;;;;;1.08;0.25;;;15.40;99.90;;;;;;4942170;28;87471;-70
2022/09/04 04:55:48;;;;;;;3.53;0.30;;;15.50;99.90;;;;;;4939129;28;86198;-70
2022/09/04 04:58:16;;;;;;;1.98;0.30;;;15.50;99.90;;;;;;4942635;28;87288;-71
2022/09/04 05:00:57;;;;;;;2.25;0.20;;;15.50;99.90;;;;;;4941120;28;87232;-73
2022/09/04 05:03:27;;;;;;;2.03;0.25;;;15.50;99.90;;;;;;4934137;28;86649;-72
2022/09/04 05:06:20;;;;;;;0.98;0.20;;;15.40;99.90;;;;;;4935493;28;86543;-74
2022/09/04 05:09:01;;;;;;;1.40;0.30;;;15.40;99.90;;;;;;4932611;28;86679;-72
2022/09/04 05:11:52;;;;;;;2.25;0.22;;;15.30;99.90;;;;;;4934965;28;86244;-73
2022/09/04 05:14:49;;;;;;;1.30;0.32;;;15.30;99.90;;;;;;4934331;28;86331;-72
2022/09/04 05:17:42;;;;;;;2.42;0.30;;;15.40;99.90;;;;;;4937376;28;86342;-76
2022/09/04 05:20:28;;;;;;;1.27;0.22;;;15.50;99.90;;;;;;4936866;28;87492;-73
2022/09/04 05:23:18;;;;;;;1.75;0.30;;;15.70;99.90;;;;;;4939572;28;88631;-70
2022/09/04 05:25:58;;;;;;;3.22;0.45;;;15.80;99.90;;;;;;4935652;28;86248;-74
2022/09/04 05:28:44;;;;;;;2.55;0.20;;;16.40;99.90;;;;;;4938184;28;86321;-70
2022/09/04 05:31:16;;;;;;;0.88;0.20;;;17.10;99.90;;;;;;4934391;28;87115;-74
2022/09/04 05:34:19;;;;;;;1.15;0.20;;;17.30;99.90;;;;;;4935369;28;87040;-76
2022/09/04 05:37:06;;;;;;;2.75;0.40;;;17.50;99.90;;;;;;4929493;28;87130;-72
2022/09/04 05:39:54;;;;;;;1.05;0.20;;;17.20;99.90;;;;;;4935527;28;85835;-71
2022/09/04 05:42:37;;;;;;;1.60;0.30;;;16.80;99.90;;;;;;4934236;28;87997;-72
2022/09/04 05:45:27;;;;;;;1.05;0.30;;;16.70;99.90;;;;;;4938375;28;88559;-70
2022/09/04 05:48:14;;;;;;;1.10;0.30;;;17.90;99.90;;;;;;4937458;28;87615;-72
2022/09/04 05:51:06;;;;;;;1.55;0.35;;;19.50;96.40;;;;;;4938409;28;86251;-71
2022/09/04 05:53:52;;;;;;;1.83;0.25;;;20.10;95.20;;;;;;4917501;28;86861;-71
2022/09/04 05:56:36;;;;;;;2.78;0.45;;;21.00;91.50;;;;;;4933695;28;88375;-72
2022/09/04 05:59:14;;;;;;;2.17;0.32;;;19.90;90.00;;;;;;4938371;28;86952;-70
2022/09/04 06:01:55;;;;;;;2.28;0.22;;;19.00;92.40;;;;;;4930968;28;86736;-70
2022/09/04 06:04:38;;;;;;;1.27;0.35;;;18.10;94.70;;;;;;4929929;28;86591;-69
2022/09/04 06:07:04;;;;;;;1.33;0.35;;;17.80;96.00;;;;;;4934990;28;86227;-69
2022/09/04 06:10:15;;;;;;;1.92;0.30;;;18.40;95.70;;;;;;4930266;28;87071;-70
2022/09/04 06:12:49;;;;;;;1.23;0.20;;;20.30;92.00;;;;;;4921027;28;87996;-68
2022/09/04 06:15:27;;;;;;;1.77;0.50;;;22.30;85.50;;;;;;4930305;28;88177;-70
2022/09/04 06:17:55;;;;;;;1.05;0.30;;;24.00;78.00;;;;;;4932308;28;87895;-68
2022/09/04 06:20:41;;;;;;;0.80;0.30;;;25.30;69.90;;;;;;4930038;28;86339;-69
2022/09/04 06:23:34;;;;;;;1.63;0.40;;;25.70;66.00;;;;;;4935406;28;86708;-68
2022/09/04 06:26:03;;;;;;;2.00;0.45;;;26.20;62.30;;;;;;4928419;28;88186;-70
2022/09/04 06:28:55;;;;;;;0.93;0.25;;;25.00;65.80;;;;;;4930156;28;86410;-70
2022/09/04 06:31:20;;;;;;;0.95;0.40;;;25.40;69.00;;;;;;4935346;28;86874;-71
2022/09/04 06:34:28;;;;;;;3.65;0.70;;;24.70;64.70;;;;;;4934169;28;85653;-69
2022/09/04 06:37:20;;;;;;;1.88;0.40;;;24.00;67.60;;;;;;4921316;28;87757;-69
2022/09/04 06:40:37;;;;;;;1.15;0.40;;;22.70;71.00;;;;;;4929183;28;87133;-69
2022/09/04 06:43:21;;;;;;;3.25;0.43;;;21.80;74.70;;;;;;4939931;28;87871;-74
2022/09/04 06:46:05;;;;;;;9.35;0.50;;;22.60;74.60;;;;;;4939023;28;86561;-75
2022/09/04 06:48:43;;;;;;;1.33;0.32;;;22.70;74.20;;;;;;4930449;28;87695;-74
2022/09/04 06:51:33;;;;;;;1.73;0.25;;;23.50;72.20;;;;;;4940675;28;86978;-76
2022/09/04 06:54:20;;;;;;;1.92;0.40;;;25.70;67.00;;;;;;4937951;28;86720;-74
2022/09/04 06:57:14;;;;;;;1.38;0.60;;;26.40;61.70;;;;;;4932412;28;86582;-71
2022/09/04 07:00:00;;;;;;;2.17;0.77;;;26.00;61.30;;;;;;4930764;28;86925;-73
2022/09/04 07:02:35;;;;;;;3.15;0.38;;;24.80;64.20;;;;;;4936355;28;86410;-73
2022/09/04 07:05:12;;;;;;;2.33;0.43;;;23.20;70.40;;;;;;4943105;28;86750;-75
2022/09/04 07:07:45;;;;;;;4.13;0.32;;;23.70;68.80;;;;;;4932935;28;86607;-77
2022/09/04 07:10:54;;;;;;;2.40;0.60;;;25.70;64.70;;;;;;4929234;28;88042;-70
2022/09/04 07:13:50;;;;;;;2.28;0.47;;;28.80;61.40;;;;;;4917286;28;88365;-76
2022/09/04 07:16:44;;;;;;;0.77;0.55;;;30.90;52.60;;;;;;4922869;28;86821;-73
2022/09/04 07:19:09;;;;;;;2.45;0.52;;;30.20;52.20;;;;;;4926001;28;87301;-74
2022/09/04 07:21:59;;;;;;;1.30;0.65;;;30.40;52.70;;;;;;4930293;28;87200;-74
2022/09/04 07:24:28;;;;;;;1.92;0.70;;;31.60;50.00;;;;;;4933602;28;87138;-71
2022/09/04 07:27:34;;;;;;;1.35;1.20;;;32.70;49.40;;;;;;4931869;28;87275;-72
2022/09/04 07:30:12;;;;;;;1.90;0.85;;;34.40;46.20;;;;;;4924836;28;87564;-73
2022/09/04 07:33:08;;;;;;;2.38;1.92;;;34.40;46.20;;;;;;4932721;28;87385;-71
2022/09/04 07:35:42;;;;;;;2.58;0.73;;;35.40;46.00;;;;;;4930540;28;87188;-75
2022/09/04 07:38:26;;;;;;;1.42;0.80;;;34.80;46.40;;;;;;4933806;28;88403;-71
2022/09/04 07:43:33;;;;;;;2.85;2.55;;;36.20;40.90;;;;;;5014354;28;81515;-70
2022/09/04 07:46:11;;;;;;;;;;;35.70;42.60;;;;;;5009125;28;80774;-68
2022/09/04 07:48:46;;;;;;;2.67;2.45;;;35.50;43.60;;;;;;5014378;28;81310;-68
2022/09/04 07:51:16;;;;;;;4.20;3.65;;;38.10;39.80;;;;;;5009219;28;81792;-69
2022/09/04 07:53:44;;;;;;;5.35;3.38;;;40.00;38.30;;;;;;5005797;28;82439;-67
2022/09/04 07:56:19;;;;;;;3.85;3.40;;;40.60;38.00;;;;;;5009680;28;80706;-68
2022/09/04 07:59:00;;;;;;;3.67;3.38;;;40.40;38.10;;;;;;5011081;28;81649;-68
2022/09/04 08:01:40;;;;;;;3.80;3.50;;;41.20;37.10;;;;;;5008450;28;81735;-70
2022/09/04 08:04:43;;;;;;;5.00;4.60;;;41.40;36.70;;;;;;5011960;28;82254;-70
2022/09/04 08:07:21;;;;;;;1.98;1.67;;;39.70;37.80;;;;;;4983553;28;81692;-67
2022/09/04 08:10:08;;;;;;;4.93;4.43;;;38.60;39.00;;;;;;5008979;28;80736;-68
2022/09/04 08:12:47;;;;;;;4.57;4.18;;;38.20;40.20;;;;;;5007233;28;81728;-65
2022/09/04 08:15:24;;;;;;;4.45;3.63;;;37.20;40.30;;;;;;4995416;28;83047;-63
2022/09/04 08:18:18;;;;;;;5.30;3.00;;;35.20;43.00;;;;;;4995806;28;81485;-65
2022/09/04 08:21:24;;;;;;;3.63;3.13;;;33.80;46.00;;;;;;4995229;28;82264;-64
2022/09/04 08:23:58;;;;;;;2.20;1.05;;;34.00;46.20;;;;;;4988946;28;81002;-64
2022/09/04 08:26:33;;;;;;;3.17;2.67;;;33.50;46.60;;;;;;5008536;28;81366;-65
2022/09/04 08:29:30;;;;;;;3.08;2.33;;;32.60;48.70;;;;;;5014810;28;81002;-64
2022/09/04 08:32:38;;;;;;;4.53;3.20;;;32.50;51.40;;;;;;5014925;28;80456;-64
2022/09/04 08:35:25;;;;;;;5.55;3.92;;;37.90;41.80;;;;;;5014617;28;84035;-66
2022/09/04 08:38:07;;;;;;;4.03;3.63;;;38.70;42.80;;;;;;5014421;28;82371;-66
2022/09/04 08:41:12;;;;;;;5.15;4.50;;;40.80;38.40;;;;;;5014759;28;81489;-66
2022/09/04 08:44:11;;;;;;;5.93;3.85;;;37.20;41.10;;;;;;5019586;28;81273;-63
2022/09/04 08:47:01;;;;;;;3.13;2.17;;;35.40;45.50;;;;;;5035149;27;81162;-65
2022/09/04 08:49:58;;;;;;;3.47;3.17;;;34.10;47.60;;;;;;5016279;27;80816;-62
2022/09/04 08:52:30;;;;;;;6.35;4.68;;;34.40;46.00;;;;;;5013171;28;81905;-64
2022/09/04 08:55:45;;;;;;;6.93;3.30;;;33.90;45.60;;;;;;4998554;28;81227;-65
2022/09/04 08:58:38;;;;;;;3.25;2.88;;;33.40;47.80;;;;;;4986304;28;83162;-64
2022/09/04 09:01:30;;;;;;;3.15;2.70;;;31.70;51.40;;;;;;5001248;28;81513;-62
2022/09/04 09:04:46;;;;;;;3.30;2.97;;;30.50;53.10;;;;;;4998495;28;81178;-63
2022/09/04 09:07:30;;;;;;;2.83;2.50;;;30.30;54.60;;;;;;4981201;28;81688;-60
2022/09/04 09:10:21;;;;;;;3.70;2.45;;;30.90;53.30;;;;;;4988950;28;81792;-66
2022/09/04 09:13:14;;;;;;;2.30;2.00;;;30.20;54.30;;;;;;5001636;28;80710;-63
2022/09/04 09:15:58;;;;;;;4.00;2.45;;;31.50;52.20;;;;;;5001514;28;80720;-65
2022/09/04 09:18:36;;;;;;;3.85;2.47;;;31.20;52.90;;;;;;5014315;28;80822;-63
2022/09/04 09:21:29;;;;;;;2.40;2.00;;;31.80;51.90;;;;;;5003058;28;82460;-64
2022/09/04 09:24:03;;;;;;;2.55;1.20;;;31.80;51.00;;;;;;5001069;28;81515;-66
2022/09/04 09:26:58;;;;;;;5.10;2.30;;;30.30;54.20;;;;;;5001532;28;81346;-62
2022/09/04 09:29:59;;;;;;;4.97;2.75;;;29.20;56.80;;;;;;4983954;28;81139;-62
2022/09/04 09:32:45;;;;;;;3.53;2.22;;;29.30;59.30;;;;;;4977811;28;83001;-63
2022/09/04 09:35:29;;;;;;;4.38;2.78;;;34.40;50.90;;;;;;4949441;28;81133;-62
2022/09/04 09:38:01;;;;;;;5.25;3.40;;;35.20;49.40;;;;;;5001415;28;80853;-64
2022/09/04 09:41:08;;;;;;;3.88;3.35;;;37.80;43.90;;;;;;5000760;28;81120;-62
2022/09/04 09:43:58;;;;;;;4.30;3.90;;;41.20;42.00;;;;;;4976556;28;83276;-64
2022/09/04 09:46:53;;;;;;;4.28;3.88;;;41.80;40.50;;;;;;4981411;28;81487;-65
2022/09/04 09:49:55;;;;;;;5.32;4.70;;;40.30;40.90;;;;;;4983046;28;81267;-66
2022/09/04 09:52:51;;;;;;;3.78;2.25;;;38.70;42.30;;;;;;5012849;28;81315;-64
2022/09/04 09:55:26;;;;;;;4.60;3.95;;;39.90;40.60;;;;;;5001616;28;82239;-64
2022/09/04 09:58:01;;;;;;;;;;;39.10;40.20;;;;;;5001518;28;81306;-64
2022/09/04 10:00:45;;;;;;;5.30;4.32;;;37.20;44.40;;;;;;5001720;28;81426;-62
2022/09/04 10:03:23;;;;;;;4.38;3.97;;;37.80;44.50;;;;;;5000827;28;81801;-63
2022/09/04 10:05:56;;;;;;;4.68;3.88;;;40.80;39.10;;;;;;4997870;28;82214;-65
2022/09/04 10:08:39;;;;;;;4.78;4.38;;;40.30;41.00;;;;;;5000487;28;81187;-63
2022/09/04 10:11:26;;;;;;;5.90;4.65;;;38.60;42.20;;;;;;5000497;28;81365;-65
2022/09/04 10:13:52;;;;;;;5.68;4.88;;;39.30;41.30;;;;;;5000345;28;80777;-64
2022/09/04 10:16:42;;;;;;;4.68;4.28;;;40.00;41.10;;;;;;5000495;28;81793;-59
2022/09/04 10:19:16;;;;;;;5.43;4.93;;;38.90;42.20;;;;;;4998198;28;81466;-64
2022/09/04 10:22:00;;;;;;;4.95;4.35;;;39.90;39.70;;;;;;5000008;28;81156;-64
2022/09/04 10:24:26;;;;;;;6.20;5.20;;;39.10;40.00;;;;;;4998906;28;80687;-62
2022/09/04 10:27:27;;;;;;;6.68;4.95;;;36.80;43.10;;;;;;5007069;28;80985;-65
2022/09/04 10:30:06;;;;;;;4.80;4.40;;;34.40;46.90;;;;;;5000308;28;81122;-63
2022/09/04 10:32:35;;;;;;;4.18;3.78;;;30.90;53.60;;;;;;4997078;28;82046;-61
2022/09/04 10:35:25;;;;;;;3.97;3.58;;;29.40;56.80;;;;;;4999376;28;81674;-64
2022/09/04 10:37:57;;;;;;;4.55;2.90;;;29.10;57.00;;;;;;4999773;28;83793;-63
2022/09/04 10:40:35;;;;;;;2.85;2.55;;;29.00;56.40;;;;;;4999526;28;84354;-66
2022/09/04 10:43:30;;;;;;;4.00;2.25;;;28.40;58.30;;;;;;5008543;28;81676;-62
2022/09/04 10:46:07;;;;;;;2.92;2.38;;;27.60;59.60;;;;;;5020493;28;81460;-64
2022/09/04 10:48:54;;;;;;;2.42;2.00;;;27.50;60.20;;;;;;4999265;28;83820;-65
2022/09/04 10:51:27;;;;;;;2.90;2.28;;;27.10;61.90;;;;;;4999416;28;83266;-65
2022/09/04 10:54:16;;;;;;;3.13;1.92;;;27.30;61.30;;;;;;4999574;28;81219;-63
2022/09/04 10:56:51;;;;;;;2.17;1.85;;;27.40;60.80;;;;;;4999516;28;81203;-65
2022/09/04 10:59:45;;;;;;;2.63;1.88;;;26.70;63.30;;;;;;5002701;28;81539;-62
2022/09/04 11:02:38;;;;;;;2.58;1.83;;;26.90;62.70;;;;;;5000580;28;81576;-63
2022/09/04 11:05:35;;;;;;;1.98;1.50;;;27.00;64.20;;;;;;4999475;28;82341;-62
2022/09/04 11:08:16;;;;;;;2.45;1.60;;;26.40;63.90;;;;;;4999533;28;81878;-65
2022/09/04 11:11:03;;;;;;;7.68;1.80;;;26.30;64.30;;;;;;4999161;28;83201;-66
2022/09/04 11:14:04;;;;;;;3.70;1.50;;;26.50;63.80;;;;;;4999574;28;81289;-61
2022/09/04 11:16:36;;;;;;;;;;;26.40;65.80;;;;;;4994854;28;81747;-64
2022/09/04 11:19:49;;;;;;;2.55;1.80;;;26.10;65.20;;;;;;4999428;28;80791;-60
2022/09/04 11:22:49;;;;;;;2.15;0.80;;;26.00;64.20;;;;;;4979293;28;83603;-64
2022/09/04 11:25:37;;;;;;;1.98;1.45;;;25.70;64.50;;;;;;4979530;28;83384;-65
2022/09/04 11:28:06;;;;;;;2.03;1.17;;;25.60;65.60;;;;;;4980922;28;81615;-64
2022/09/04 11:30:58;;;;;;;2.35;1.40;;;25.70;64.20;;;;;;4998167;28;81453;-62
2022/09/04 11:33:59;;;;;;;1.70;1.08;;;26.10;62.80;;;;;;4996966;28;84381;-62
2022/09/04 11:36:34;;;;;;;2.35;1.45;;;26.10;63.80;;;;;;5009368;28;81224;-62
2022/09/04 11:39:41;;;;;;;1.73;1.38;;;25.80;64.20;;;;;;4999894;28;81376;-64
2022/09/04 11:42:53;;;;;;;2.08;1.23;;;25.80;65.00;;;;;;4998332;28;81543;-61
2022/09/04 11:45:51;;;;;;;2.45;1.40;;;25.60;65.40;;;;;;4997606;28;82645;-61
2022/09/04 11:48:29;;;;;;;1.90;1.30;;;25.80;64.30;;;;;;4995950;28;82227;-64
2022/09/04 11:51:03;;;;;;;2.10;1.10;;;25.50;65.10;;;;;;4997550;28;81089;-60
2022/09/04 11:53:43;;;;;;;2.90;1.02;;;25.80;64.60;;;;;;4981159;28;80699;-63
2022/09/04 11:56:30;;;;;;;2.40;1.15;;;25.70;64.90;;;;;;4979150;28;82243;-63
2022/09/04 11:59:26;;;;;;;2.25;1.27;;;25.80;64.80;;;;;;4989355;28;81348;-60
2022/09/04 12:02:12;;;;;;;2.03;1.83;;;25.70;62.80;;;;;;4998627;28;81110;-65
2022/09/04 12:05:12;;;;;;;2.53;1.40;;;25.80;62.90;;;;;;4998373;28;81778;-62
2022/09/04 12:08:12;;;;;;;2.67;1.40;;;25.70;64.60;;;;;;5004035;28;81553;-64
2022/09/04 12:10:58;;;;;;;6.32;1.58;;;25.40;65.60;;;;;;4998558;28;81430;-61
2022/09/04 12:14:08;;;;;;;5.97;1.33;;;25.70;65.70;;;;;;4998651;28;81433;-64
2022/09/04 12:16:58;;;;;;;2.00;1.10;;;25.70;65.60;;;;;;4981588;28;81245;-64
2022/09/04 12:19:41;;;;;;;2.15;1.25;;;25.90;63.90;;;;;;4998181;28;84086;-65
2022/09/04 12:22:25;;;;;;;2.67;1.42;;;26.00;64.00;;;;;;4977633;28;81575;-62
2022/09/04 12:24:54;;;;;;;1.88;1.30;;;25.90;64.30;;;;;;4987946;28;83572;-62
2022/09/04 12:27:34;;;;;;;1.83;1.33;;;25.60;63.80;;;;;;4997377;28;81993;-63
2022/09/04 12:30:13;;;;;;;3.20;1.52;;;25.50;64.40;;;;;;5000663;28;81169;-64
2022/09/04 12:33:03;;;;;;;2.53;1.52;;;25.50;64.50;;;;;;5000184;28;84182;-60
2022/09/04 12:36:03;;;;;;;2.97;1.30;;;25.50;64.00;;;;;;5001561;28;82862;-61
2022/09/04 12:38:50;;;;;;;2.10;1.05;;;25.60;64.80;;;;;;5000288;28;81874;-64
2022/09/04 12:41:29;;;;;;;2.33;1.60;;;25.50;64.70;;;;;;5002498;28;83070;-64
2022/09/04 12:44:33;;;;;;;3.70;1.27;;;25.60;64.60;;;;;;5001410;28;82120;-61
2022/09/04 12:47:07;;;;;;;2.00;1.33;;;25.60;64.50;;;;;;4957470;28;81881;-61
2022/09/04 12:50:10;;;;;;;2.25;1.27;;;25.60;64.60;;;;;;4981694;28;81953;-63
2022/09/04 12:53:07;;;;;;;2.42;1.27;;;25.60;63.30;;;;;;4993870;28;82812;-65
2022/09/04 12:56:10;;;;;;;1.85;1.27;;;25.60;64.40;;;;;;4993730;28;82201;-62
2022/09/04 12:59:22;;;;;;;1.55;1.40;;;25.50;64.00;;;;;;4999833;28;83299;-65
2022/09/04 13:02:05;;;;;;;2.22;1.38;;;25.50;63.30;;;;;;5000643;28;82413;-65
2022/09/04 13:04:31;;;;;;;2.63;1.10;;;25.60;64.00;;;;;;5001681;28;81810;-65
2022/09/04 13:07:03;;;;;;;1.48;1.10;;;25.70;61.60;;;;;;4999002;28;82530;-62
2022/09/04 13:09:50;;;;;;;1.92;1.08;;;25.80;62.60;;;;;;5000210;28;82006;-65
2022/09/04 13:12:53;;;;;;;1.90;1.02;;;25.60;61.90;;;;;;5000884;28;81343;-65
2022/09/04 13:15:28;;;;;;;2.70;1.60;;;25.60;60.90;;;;;;5003735;28;81549;-61
2022/09/04 13:18:24;;;;;;;3.10;1.05;;;25.70;62.40;;;;;;4996750;28;82059;-63
2022/09/04 13:21:14;;;;;;;2.67;1.30;;;25.60;62.00;;;;;;4994340;28;81745;-66
2022/09/04 13:24:09;;;;;;;2.10;1.30;;;25.70;59.80;;;;;;4997474;28;81230;-65
2022/09/04 13:27:14;;;;;;;1.60;1.00;;;25.80;61.20;;;;;;4976671;28;83447;-64
2022/09/04 13:30:01;;;;;;;2.15;1.13;;;25.60;59.40;;;;;;4981978;28;84890;-62
2022/09/04 13:32:57;;;;;;;1.30;1.00;;;25.60;59.80;;;;;;5000568;28;82138;-63
2022/09/04 13:36:00;;;;;;;2.10;1.08;;;25.70;60.60;;;;;;4983099;28;82668;-63
2022/09/04 13:38:34;;;;;;;5.28;1.85;;;25.60;58.70;;;;;;4998267;28;81950;-63
2022/09/04 13:41:00;;;;;;;1.83;1.15;;;25.60;59.60;;;;;;4994615;28;82857;-59
2022/09/04 13:43:44;;;;;;;4.40;1.13;;;25.50;60.50;;;;;;4980882;28;83007;-64
2022/09/04 13:46:17;;;;;;;2.92;1.05;;;25.70;59.90;;;;;;4981307;28;81899;-62
2022/09/04 13:48:53;;;;;;;1.40;1.08;;;25.90;59.50;;;;;;4986918;28;81944;-65
2022/09/04 13:51:35;;;;;;;1.55;1.17;;;26.00;59.40;;;;;;5019529;28;83105;-64
2022/09/04 13:54:15;;;;;;;1.95;1.08;;;26.10;58.90;;;;;;5020334;28;83265;-66
2022/09/04 13:57:12;;;;;;;1.63;1.05;;;26.00;58.20;;;;;;5019194;28;82581;-60
2022/09/04 13:59:40;;;;;;;2.00;1.40;;;25.90;58.70;;;;;;4985604;28;81543;-62
2022/09/04 14:02:11;;;;;;;1.52;0.90;;;25.80;59.10;;;;;;4986899;28;81431;-63
2022/09/04 14:04:46;;;;;;;0.90;0.40;;;25.80;60.00;;;;;;4999687;28;82659;-63
2022/09/04 14:07:16;;;;;;;;;;;25.90;60.00;;;;;;4992493;28;82720;-65
2022/09/04 14:09:45;;;;;;;1.73;0.93;;;25.80;61.00;;;;;;4994774;28;83583;-62
2022/09/04 14:12:18;;;;;;;1.85;0.95;;;25.70;60.40;;;;;;4993175;28;81990;-65
2022/09/04 14:14:58;;;;;;;1.77;1.10;;;25.80;59.70;;;;;;4996688;28;82232;-63
2022/09/04 14:17:40;;;;;;;1.95;1.30;;;25.90;59.10;;;;;;4998717;28;82596;-64
2022/09/04 14:20:20;;;;;;;1.70;0.50;;;25.60;59.30;;;;;;4998808;28;83485;-62
2022/09/04 14:23:03;;;;;;;1.85;1.00;;;25.70;58.50;;;;;;4998884;28;85582;-61
2022/09/04 14:25:53;;;;;;;2.38;1.38;;;25.60;59.10;;;;;;4981306;28;83031;-63
2022/09/04 14:28:37;;;;;;;1.60;0.93;;;25.60;56.90;;;;;;4990950;28;83023;-60
2022/09/04 14:31:15;;;;;;;1.73;1.20;;;25.80;58.60;;;;;;4994158;28;83097;-63
2022/09/04 14:34:06;;;;;;;4.32;0.95;;;25.70;57.70;;;;;;4980554;28;82239;-63
2022/09/04 14:36:55;;;;;;;2.08;0.93;;;25.70;56.00;;;;;;4998795;28;82025;-62
2022/09/04 14:39:39;;;;;;;2.17;0.90;;;25.80;54.90;;;;;;4994027;28;82048;-64
2022/09/04 14:42:16;;;;;;;1.40;0.90;;;25.70;56.00;;;;;;4995625;28;81770;-61
2022/09/04 14:44:48;;;;;;;2.13;0.80;;;25.90;55.80;;;;;;4986574;28;82189;-61
2022/09/04 14:47:32;;;;;;;1.40;0.50;;;25.70;57.10;;;;;;4991564;28;81737;-66
2022/09/04 14:50:02;;;;;;;2.13;0.85;;;25.80;56.40;;;;;;4990112;28;82592;-63
2022/09/04 14:52:32;;;;;;;3.95;0.93;;;25.80;56.50;;;;;;4987518;28;82759;-61
2022/09/04 14:54:59;;;;;;;2.78;1.15;;;25.80;57.10;;;;;;4998940;28;83600;-63
2022/09/04 14:57:40;;;;;;;2.05;1.10;;;25.80;57.10;;;;;;4993530;28;82232;-62
2022/09/04 15:00:17;;;;;;;1.77;0.93;;;25.70;55.50;;;;;;4990294;28;81701;-61
2022/09/04 15:02:49;;;;;;;2.33;1.17;;;25.70;55.80;;;;;;4992798;28;83515;-61
2022/09/04 15:05:23;;;;;;;3.40;1.15;;;25.60;56.30;;;;;;4992243;28;82234;-61
2022/09/04 15:08:01;;;;;;;2.08;1.10;;;25.70;56.40;;;;;;4998388;28;83450;-62
2022/09/04 15:10:49;;;;;;;1.52;1.08;;;25.70;53.70;;;;;;4996107;28;82578;-63
2022/09/04 15:13:26;;;;;;;2.67;1.02;;;25.60;55.20;;;;;;4991995;28;83815;-64
2022/09/04 15:15:58;;;;;;;1.83;0.90;;;25.70;55.80;;;;;;4980063;28;83110;-64
2022/09/04 15:18:37;;;;;;;1.70;0.70;;;25.70;55.80;;;;;;4980489;28;84607;-62
2022/09/04 15:21:15;;;;;;;1.27;0.75;;;25.60;55.90;;;;;;4988677;28;82065;-64
2022/09/04 15:23:58;;;;;;;2.70;1.08;;;25.70;57.00;;;;;;4990024;28;83816;-64
2022/09/04 15:26:38;;;;;;;2.05;1.02;;;25.70;53.50;;;;;;4991389;28;81983;-60
2022/09/04 15:29:16;;;;;;;1.90;0.68;;;25.70;54.90;;;;;;4990938;28;83268;-61
2022/09/04 15:31:42;;;;;;;1.15;0.40;;;25.70;55.70;;;;;;4994925;28;82216;-61
2022/09/04 15:34:23;;;;;;;3.10;0.90;;;25.70;53.60;;;;;;4998181;28;81453;-63
2022/09/04 15:36:49;;;;;;;1.23;0.82;;;25.70;55.00;;;;;;4997366;28;82176;-64
2022/09/04 15:39:31;;;;;;;1.08;0.50;;;25.50;54.80;;;;;;4995711;28;81622;-62
2022/09/04 15:41:58;;;;;;;1.77;0.80;;;25.50;54.40;;;;;;4997684;28;82633;-63
2022/09/04 15:44:31;;;;;;;2.35;1.25;;;25.60;55.60;;;;;;4998510;28;83033;-62
2022/09/04 15:47:12;;;;;;;2.67;0.90;;;25.50;55.70;;;;;;4997338;28;81606;-62
2022/09/04 15:49:54;;;;;;;1.40;0.88;;;25.50;56.20;;;;;;5012789;28;81775;-64
2022/09/04 15:52:39;;;;;;;1.80;0.57;;;25.50;56.00;;;;;;5000678;28;81550;-65
2022/09/04 15:55:22;;;;;;;2.15;0.95;;;25.60;56.40;;;;;;4998710;28;81547;-64
2022/09/04 15:58:09;;;;;;;1.55;0.82;;;25.60;55.50;;;;;;4978467;28;83264;-62
2022/09/04 16:00:39;;;;;;;2.58;1.02;;;25.50;56.70;;;;;;4983731;28;82299;-61
2022/09/04 16:03:23;;;;;;;2.38;1.25;;;25.50;55.30;;;;;;4998195;28;81547;-63
2022/09/04 16:06:14;;;;;;;1.65;0.63;;;25.50;55.30;;;;;;5003690;28;81946;-61
2022/09/04 16:09:06;;;;;;;2.63;1.25;;;25.50;56.00;;;;;;4981005;28;85085;-60
2022/09/04 16:11:54;;;;;;;3.72;1.02;;;25.50;55.60;;;;;;4997271;28;82086;-62
2022/09/04 16:14:26;;;;;;;1.92;1.00;;;25.50;55.40;;;;;;4999650;28;81976;-61
2022/09/04 16:17:00;;;;;;;1.33;0.47;;;25.50;55.10;;;;;;5002067;28;81862;-64
2022/09/04 16:19:43;;;;;;;3.40;1.13;;;25.40;55.20;;;;;;5002851;28;83694;-61
2022/09/04 16:22:19;;;;;;;1.85;0.90;;;25.50;55.10;;;;;;5002695;28;81544;-61
2022/09/04 16:24:49;;;;;;;1.73;0.98;;;25.40;55.80;;;;;;4998470;28;81567;-59
2022/09/04 16:27:20;;;;;;;1.77;0.90;;;25.40;56.40;;;;;;5001801;28;84173;-63
2022/09/04 16:29:54;;;;;;;1.92;1.20;;;25.30;56.20;;;;;;5001872;28;82129;-64
2022/09/04 16:32:23;;;;;;;3.88;0.93;;;25.30;56.30;;;;;;4996135;28;83616;-62
2022/09/04 16:34:58;;;;;;;1.20;0.82;;;25.20;56.70;;;;;;5000985;28;82441;-65
2022/09/04 16:37:33;;;;;;;2.60;1.00;;;25.20;57.20;;;;;;4998013;28;81894;-64
2022/09/04 16:40:11;;;;;;;1.50;0.88;;;25.20;57.10;;;;;;5001612;28;81585;-61
2022/09/04 16:42:46;;;;;;;1.65;1.00;;;25.10;57.10;;;;;;4999052;28;82397;-64
2022/09/04 16:45:20;;;;;;;1.77;0.80;;;25.10;57.80;;;;;;4997753;28;83047;-63
2022/09/04 16:47:53;;;;;;;3.05;1.10;;;25.00;58.70;;;;;;4999350;28;82142;-65
2022/09/04 16:50:26;;;;;;;1.75;1.02;;;25.00;59.30;;;;;;5004464;28;83182;-63
2022/09/04 16:53:22;;;;;;;1.52;0.90;;;25.00;59.30;;;;;;5003977;28;83074;-61
2022/09/04 16:56:06;;;;;;;1.75;0.90;;;24.90;59.80;;;;;;5001843;28;81875;-65
2022/09/04 16:58:46;;;;;;;1.52;0.60;;;24.90;60.20;;;;;;4999613;28;81366;-64
2022/09/04 17:01:16;;;;;;;2.70;1.20;;;24.90;60.40;;;;;;4992751;28;84653;-67
2022/09/04 17:03:53;;;;;;;3.25;1.00;;;24.80;60.70;;;;;;4998425;28;84449;-62
2022/09/04 17:06:41;;;;;;;1.45;0.90;;;24.70;60.40;;;;;;5001454;28;82018;-68
2022/09/04 17:09:39;;;;;;;3.13;1.08;;;24.60;61.50;;;;;;4999725;28;83093;-65
2022/09/04 17:12:55;;;;;;;4.70;1.15;;;24.30;63.00;;;;;;4997537;28;82021;-61
2022/09/04 17:15:24;;;;;;;3.55;1.20;;;24.10;64.20;;;;;;4982026;28;83667;-65
2022/09/04 17:17:52;;;;;;;3.38;1.83;;;23.90;63.10;;;;;;4995980;28;81954;-66
2022/09/04 17:20:45;;;;;;;6.28;1.40;;;23.90;62.80;;;;;;4996634;28;83472;-68
2022/09/04 17:23:37;;;;;;;1.85;1.30;;;24.00;63.10;;;;;;4995136;28;82728;-67
2022/09/04 17:26:10;;;;;;;3.28;1.02;;;24.10;61.80;;;;;;4996918;28;82105;-66
2022/09/04 17:28:49;;;;;;;2.33;0.90;;;24.10;61.90;;;;;;4997812;28;83432;-67
2022/09/04 17:31:25;;;;;;;3.85;1.00;;;24.00;62.10;;;;;;4996351;28;81429;-68
2022/09/04 17:34:05;;;;;;;9.55;1.13;;;23.90;62.40;;;;;;4999011;28;82911;-66
2022/09/04 17:36:46;;;;;;;3.10;1.08;;;23.80;63.20;;;;;;4997871;28;83375;-65
2022/09/04 17:39:17;;;;;;;2.83;0.88;;;23.70;63.20;;;;;;4993358;28;82061;-67
2022/09/04 17:42:13;;;;;;;3.95;0.85;;;23.60;63.50;;;;;;4994846;28;82697;-68
2022/09/04 17:45:04;;;;;;;4.40;1.20;;;23.50;63.60;;;;;;4992818;28;82618;-67
2022/09/04 17:47:42;;;;;;;1.92;0.98;;;23.40;64.20;;;;;;4990654;28;81453;-66
2022/09/04 17:50:17;;;;;;;4.53;0.70;;;23.40;64.50;;;;;;4994003;28;82181;-67
2022/09/04 17:52:59;;;;;;;1.92;0.57;;;23.30;65.00;;;;;;4986988;28;81628;-67
2022/09/04 17:55:27;;;;;;;2.33;0.95;;;23.20;67.00;;;;;;4993458;28;83112;-68
2022/09/04 17:58:05;;;;;;;5.03;1.40;;;22.90;67.70;;;;;;5002316;28;82896;-67
2022/09/04 18:00:53;;;;;;;2.60;1.30;;;22.80;68.70;;;;;;4996660;28;81289;-67
2022/09/04 18:03:28;;;;;;;2.58;1.08;;;22.70;69.40;;;;;;4986785;28;83734;-68
2022/09/04 18:06:18;;;;;;;3.45;1.35;;;22.60;69.60;;;;;;4998259;28;83007;-66
2022/09/04 18:08:52;;;;;;;3.03;1.55;;;22.60;70.20;;;;;;4996805;28;81996;-67
2022/09/04 18:11:39;;;;;;;3.83;0.95;;;22.40;69.70;;;;;;4997923;28;81863;-67
2022/09/04 18:14:44;;;;;;;4.07;1.27;;;22.10;70.90;;;;;;5001316;28;81639;-66
2022/09/04 18:17:23;;;;;;;2.55;0.65;;;21.90;74.20;;;;;;4991597;28;81929;-65
2022/09/04 18:20:04;;;;;;;2.90;1.33;;;21.90;73.20;;;;;;4994170;28;81811;-67
2022/09/04 18:22:48;;;;;;;2.47;1.13;;;21.90;72.80;;;;;;4997676;28;83032;-66
2022/09/04 18:25:43;;;;;;;2.15;1.02;;;21.90;72.80;;;;;;4998711;28;82032;-65